Keremeos, Canada
Current Conditions -  °F | °C
As of 6:40 AM on Thursday 27 Nov 2014 (Local Time) from CYYF Reporting Station
Broken Clouds Broken Clouds  
Wind Chill: 34°   Ceiling: 1400
Heat Index: 41°   Visibility: 15mi
Dew Point: 37°   Wind: 12mph
Humidity: 87%   Direction: 170°S
Pressure: 29.79"   Gusts: 18mph
Location:  49.2°N, 119.82°W
Report Text: CYYF 271440Z 17010G16KT 15SM BKN014 BKN025 05/03 A2979 RMK SF5SC2 SLP098
Loading
Personal Weather Stations






























Interactive Weather Map New forecast layout! Learn more

10-Day Weather Forecast

Advertisements
Track Severe Weather on mobile